createdAt,value
2022-12-20T00:01:15.485Z,72.83
2022-12-20T00:03:42.254Z,73.30
2022-12-20T00:06:08.850Z,72.76
2022-12-20T00:08:36.280Z,72.72
2022-12-20T00:11:03.606Z,73.19
2022-12-20T00:13:29.990Z,72.79
2022-12-20T00:16:03.963Z,72.75
2022-12-20T00:18:30.377Z,72.57
2022-12-20T00:21:00.585Z,72.81
2022-12-20T00:23:27.274Z,72.53
2022-12-20T00:25:53.647Z,72.71
2022-12-20T00:28:20.029Z,73.14
2022-12-20T00:30:46.384Z,72.62
2022-12-20T00:33:12.773Z,72.73
2022-12-20T00:35:42.017Z,72.35
2022-12-20T00:38:08.404Z,72.84
2022-12-20T00:40:34.807Z,72.96
2022-12-20T00:43:01.199Z,73.03
2022-12-20T00:45:27.588Z,72.77
2022-12-20T00:47:54.130Z,72.71
2022-12-20T00:50:20.457Z,72.00
2022-12-20T00:52:46.840Z,71.81
2022-12-20T00:55:13.277Z,72.11
2022-12-20T00:57:40.071Z,72.23
2022-12-20T01:00:07.039Z,71.75
2022-12-20T01:02:34.158Z,71.88
2022-12-20T01:05:00.674Z,72.18
2022-12-20T01:07:27.439Z,71.83
2022-12-20T01:09:53.791Z,72.12
2022-12-20T01:12:20.203Z,72.07
2022-12-20T01:14:46.795Z,71.83
2022-12-20T01:17:13.189Z,71.71
2022-12-20T01:19:39.960Z,71.47
2022-12-20T01:22:06.514Z,71.52
2022-12-20T01:24:32.903Z,71.83
2022-12-20T01:26:59.307Z,71.30
2022-12-20T01:29:25.652Z,71.65
2022-12-20T01:31:53.782Z,71.21
2022-12-20T01:34:20.235Z,71.31
2022-12-20T01:36:46.589Z,71.02
2022-12-20T01:39:14.448Z,71.43
2022-12-20T01:41:41.768Z,70.73
2022-12-20T01:44:17.281Z,70.65
2022-12-20T01:46:44.173Z,70.93
2022-12-20T01:49:14.558Z,70.92
2022-12-20T01:51:43.061Z,70.79
2022-12-20T01:54:35.912Z,71.00
2022-12-20T01:57:03.749Z,71.51
2022-12-20T01:59:31.650Z,71.91
2022-12-20T02:01:58.739Z,72.31
2022-12-20T02:04:25.284Z,72.14
2022-12-20T02:06:51.592Z,73.20
2022-12-20T02:09:18.002Z,74.01
2022-12-20T02:11:58.373Z,74.08
2022-12-20T02:14:43.241Z,74.89
2022-12-20T02:17:16.933Z,76.29
2022-12-20T02:19:46.413Z,76.77
2022-12-20T02:22:15.530Z,78.01
2022-12-20T02:24:54.590Z,78.76
2022-12-20T02:27:20.880Z,79.15
2022-12-20T02:30:01.969Z,80.15
2022-12-20T02:32:36.115Z,80.54
2022-12-20T02:35:04.369Z,81.56
2022-12-20T02:37:30.766Z,82.29
2022-12-20T02:39:57.136Z,83.02
2022-12-20T02:42:25.624Z,82.77
2022-12-20T02:45:15.158Z,83.01
2022-12-20T02:47:41.519Z,83.04
2022-12-20T02:50:09.858Z,83.82
2022-12-20T02:52:36.413Z,83.79
2022-12-20T02:55:03.628Z,83.82
2022-12-20T02:57:45.700Z,84.07
2022-12-20T03:00:16.136Z,83.86
2022-12-20T03:03:02.579Z,84.16
2022-12-20T03:05:29.145Z,84.74
2022-12-20T03:07:55.673Z,84.32
2022-12-20T03:10:22.727Z,85.20
2022-12-20T03:12:49.166Z,84.75
2022-12-20T03:15:15.485Z,85.36
2022-12-20T03:17:41.853Z,85.53
2022-12-20T03:20:08.489Z,86.02
2022-12-20T03:22:34.949Z,85.94
2022-12-20T03:25:01.528Z,86.23
2022-12-20T03:27:28.658Z,87.17
2022-12-20T03:29:55.246Z,86.97
2022-12-20T03:32:21.695Z,86.57
2022-12-20T03:34:48.156Z,87.35
2022-12-20T03:37:14.636Z,87.19
2022-12-20T03:39:40.958Z,87.68
2022-12-20T03:42:07.310Z,87.55
2022-12-20T03:44:33.824Z,87.67
2022-12-20T03:47:00.217Z,87.43
2022-12-20T03:49:27.179Z,88.20
2022-12-20T03:51:53.481Z,87.64
2022-12-20T03:54:19.837Z,87.39
2022-12-20T03:56:46.150Z,87.98
2022-12-20T03:59:12.499Z,87.45
2022-12-20T04:01:39.123Z,87.60
2022-12-20T04:04:05.958Z,86.92
2022-12-20T04:06:32.449Z,86.49
2022-12-20T04:08:58.787Z,85.84
2022-12-20T04:11:25.114Z,85.81
2022-12-20T04:13:52.700Z,85.46
2022-12-20T04:16:20.366Z,85.10
2022-12-20T04:18:46.782Z,85.12
2022-12-20T04:21:13.737Z,84.73
2022-12-20T04:23:41.469Z,84.56
2022-12-20T04:26:08.492Z,85.01
2022-12-20T04:28:35.261Z,84.69
2022-12-20T04:31:02.419Z,84.19
2022-12-20T04:33:28.918Z,83.88
2022-12-20T04:35:55.706Z,84.10
2022-12-20T04:38:22.561Z,83.95
2022-12-20T04:40:49.941Z,83.81
2022-12-20T04:43:16.870Z,83.19
2022-12-20T04:45:44.156Z,83.29
2022-12-20T04:48:37.534Z,83.00
2022-12-20T04:50:57.493Z,82.85
2022-12-20T04:53:42.703Z,82.75
2022-12-20T04:56:09.040Z,83.30
2022-12-20T04:58:35.516Z,82.67
2022-12-20T05:01:01.876Z,82.16
2022-12-20T05:03:28.282Z,82.55
2022-12-20T05:05:54.739Z,82.31
2022-12-20T05:08:21.155Z,82.45
2022-12-20T05:10:48.126Z,82.65
2022-12-20T05:13:14.654Z,82.81
2022-12-20T05:15:42.086Z,82.57
2022-12-20T05:18:08.498Z,82.46
2022-12-20T05:20:35.232Z,82.69
2022-12-20T05:23:20.580Z,82.11
2022-12-20T05:26:07.518Z,82.67
2022-12-20T05:28:34.475Z,82.72
2022-12-20T05:31:01.365Z,82.72
2022-12-20T05:33:33.817Z,82.56
2022-12-20T05:36:00.729Z,82.47
2022-12-20T05:38:27.092Z,82.18
2022-12-20T05:40:53.466Z,82.32
2022-12-20T05:43:20.744Z,82.47
2022-12-20T05:45:51.496Z,82.63
2022-12-20T05:48:18.584Z,82.93
2022-12-20T05:50:45.839Z,82.83
2022-12-20T05:53:13.002Z,83.37
2022-12-20T05:55:43.514Z,83.38
2022-12-20T05:58:13.276Z,84.00
2022-12-20T06:00:40.611Z,84.65
2022-12-20T06:03:08.197Z,84.93
2022-12-20T06:05:34.999Z,85.46
2022-12-20T06:08:01.383Z,86.02
2022-12-20T06:10:27.693Z,87.08
2022-12-20T06:12:54.041Z,86.82
2022-12-20T06:15:20.580Z,87.33
2022-12-20T06:17:46.974Z,87.81
2022-12-20T06:20:13.435Z,87.52
2022-12-20T06:22:40.498Z,88.47
2022-12-20T06:25:09.210Z,88.89
2022-12-20T06:27:36.421Z,88.82
2022-12-20T06:30:04.146Z,88.57
2022-12-20T06:32:30.552Z,88.75
2022-12-20T06:34:56.992Z,88.63
2022-12-20T06:37:23.442Z,89.12
2022-12-20T06:39:49.974Z,89.09
2022-12-20T06:42:16.492Z,89.04
2022-12-20T06:44:42.991Z,89.55
2022-12-20T06:47:09.393Z,90.25
2022-12-20T06:49:35.907Z,90.20
2022-12-20T06:52:02.370Z,90.82
2022-12-20T06:54:28.821Z,90.84
2022-12-20T06:56:55.285Z,90.96
2022-12-20T06:59:21.673Z,90.48
2022-12-20T07:01:48.280Z,90.89
2022-12-20T07:04:14.809Z,90.50
2022-12-20T07:06:41.256Z,90.35
2022-12-20T07:09:09.223Z,90.39
2022-12-20T07:11:37.369Z,90.39
2022-12-20T07:14:03.904Z,90.32
2022-12-20T07:16:32.195Z,90.17
2022-12-20T07:18:58.901Z,89.70
2022-12-20T07:21:25.343Z,89.56
2022-12-20T07:23:52.563Z,90.08
2022-12-20T07:26:19.037Z,89.23
2022-12-20T07:28:45.512Z,88.76
2022-12-20T07:31:11.956Z,88.58
2022-12-20T07:33:38.994Z,88.48
2022-12-20T07:36:11.475Z,88.69
2022-12-20T07:38:38.114Z,88.14
2022-12-20T07:41:12.068Z,88.24
2022-12-20T07:43:38.529Z,88.47
2022-12-20T07:46:05.457Z,88.26
2022-12-20T07:48:32.254Z,87.58
2022-12-20T07:51:00.849Z,87.62
2022-12-20T07:53:28.901Z,87.14
2022-12-20T07:55:58.479Z,86.94
2022-12-20T07:58:25.289Z,86.86
2022-12-20T08:00:51.819Z,87.48
2022-12-20T08:03:20.722Z,86.65
2022-12-20T08:05:49.637Z,86.50
2022-12-20T08:08:16.736Z,86.06
2022-12-20T08:10:43.561Z,85.56
2022-12-20T08:13:10.079Z,85.60
2022-12-20T08:15:36.751Z,85.74
2022-12-20T08:18:03.647Z,84.89
2022-12-20T08:20:30.262Z,84.81
2022-12-20T08:22:56.713Z,84.37
2022-12-20T08:25:25.410Z,84.43
2022-12-20T08:27:52.519Z,84.15
2022-12-20T08:30:19.019Z,84.37
2022-12-20T08:32:45.538Z,84.55
2022-12-20T08:35:13.047Z,84.59
2022-12-20T08:37:40.035Z,84.19
2022-12-20T08:40:07.683Z,84.70
2022-12-20T08:42:34.592Z,84.69
2022-12-20T08:45:00.980Z,85.29
2022-12-20T08:47:29.203Z,85.68
2022-12-20T08:49:55.642Z,85.99
2022-12-20T08:52:22.396Z,85.73
2022-12-20T08:54:48.855Z,85.84
2022-12-20T08:57:15.274Z,86.03
2022-12-20T08:59:41.686Z,86.20
2022-12-20T09:02:08.453Z,86.37
2022-12-20T09:04:35.078Z,86.45
2022-12-20T09:07:01.681Z,86.50
2022-12-20T09:09:28.254Z,86.86
2022-12-20T09:11:54.783Z,86.60
2022-12-20T09:14:21.490Z,86.88
2022-12-20T09:16:48.003Z,86.21
2022-12-20T09:19:16.734Z,86.35
2022-12-20T09:21:43.189Z,85.87
2022-12-20T09:24:10.141Z,85.97
2022-12-20T09:26:37.135Z,85.63
2022-12-20T09:29:03.676Z,85.62
2022-12-20T09:31:30.276Z,86.16
2022-12-20T09:34:00.637Z,85.96
2022-12-20T09:36:28.415Z,86.11
2022-12-20T09:38:55.354Z,85.70
2022-12-20T09:41:24.927Z,86.74
2022-12-20T09:43:51.977Z,86.86
2022-12-20T09:46:18.665Z,86.81
2022-12-20T09:48:46.429Z,87.17
2022-12-20T09:51:15.922Z,87.43
2022-12-20T09:53:54.975Z,87.88
2022-12-20T09:56:32.463Z,87.83
2022-12-20T09:59:00.951Z,88.70
2022-12-20T10:01:36.199Z,89.06
2022-12-20T10:04:07.071Z,88.84
2022-12-20T10:06:45.496Z,89.42
2022-12-20T10:09:50.681Z,89.41
2022-12-20T10:12:17.175Z,89.89
2022-12-20T10:14:50.387Z,89.49
2022-12-20T10:17:17.282Z,89.88
2022-12-20T10:20:00.883Z,89.98
2022-12-20T10:22:42.198Z,90.71
2022-12-20T10:25:17.577Z,90.75
2022-12-20T10:27:45.232Z,90.58
2022-12-20T10:30:16.093Z,91.08
2022-12-20T10:32:47.079Z,90.79
2022-12-20T10:35:21.191Z,90.80
2022-12-20T10:38:09.803Z,91.60
2022-12-20T10:41:10.313Z,91.55
2022-12-20T10:43:25.068Z,91.84
2022-12-20T10:46:00.727Z,91.91
2022-12-20T10:48:31.657Z,91.74
2022-12-20T10:51:15.354Z,91.80
2022-12-20T10:53:50.287Z,92.23
2022-12-20T10:56:19.858Z,91.96
2022-12-20T10:58:57.211Z,92.17
2022-12-20T11:01:29.087Z,91.59
2022-12-20T11:04:03.175Z,92.55
2022-12-20T11:06:41.375Z,92.53
2022-12-20T11:09:26.347Z,91.89
2022-12-20T11:11:59.806Z,92.25
2022-12-20T11:14:28.480Z,92.49
2022-12-20T11:17:00.281Z,92.29
2022-12-20T11:19:45.454Z,91.71
2022-12-20T11:22:14.972Z,91.78
2022-12-20T11:24:41.443Z,91.69
2022-12-20T11:27:19.750Z,91.57
2022-12-20T11:29:52.004Z,91.51
2022-12-20T11:32:24.556Z,91.26
2022-12-20T11:35:17.511Z,91.66
2022-12-20T11:38:09.791Z,92.13
2022-12-20T11:40:39.589Z,92.02
2022-12-20T11:43:21.749Z,91.79
2022-12-20T11:45:51.057Z,91.88
2022-12-20T11:48:37.758Z,91.56
2022-12-20T11:51:26.714Z,91.91
2022-12-20T11:54:07.802Z,91.06
2022-12-20T11:56:43.541Z,91.80
2022-12-20T11:59:26.546Z,91.30
2022-12-20T12:02:03.238Z,91.58
2022-12-20T12:04:36.266Z,91.40
2022-12-20T12:07:08.243Z,92.33
2022-12-20T12:09:41.297Z,92.20
2022-12-20T12:12:10.851Z,91.77
2022-12-20T12:14:40.049Z,91.97
2022-12-20T12:17:14.854Z,91.96
2022-12-20T12:19:43.259Z,92.07
2022-12-20T12:22:15.140Z,91.79
2022-12-20T12:24:46.774Z,92.47
2022-12-20T12:27:26.681Z,92.59
2022-12-20T12:29:54.444Z,91.71
2022-12-20T12:32:30.496Z,92.08
2022-12-20T12:35:15.491Z,92.69
2022-12-20T12:38:00.849Z,92.01
2022-12-20T12:40:53.778Z,92.08
2022-12-20T12:43:26.910Z,92.08
2022-12-20T12:45:58.249Z,91.86
2022-12-20T12:48:42.302Z,91.63
2022-12-20T12:51:10.012Z,92.01
2022-12-20T12:54:05.705Z,92.20
2022-12-20T12:56:48.182Z,92.43
2022-12-20T12:59:40.030Z,92.00
2022-12-20T13:02:21.047Z,92.08
2022-12-20T13:04:54.397Z,92.21
2022-12-20T13:07:29.180Z,92.03
2022-12-20T13:09:55.600Z,91.60
2022-12-20T13:12:48.550Z,92.05
2022-12-20T13:15:21.175Z,92.11
2022-12-20T13:17:54.972Z,91.70
2022-12-20T13:20:21.416Z,92.61
2022-12-20T13:23:10.367Z,92.50
2022-12-20T13:25:38.433Z,92.89
2022-12-20T13:28:30.927Z,93.94
2022-12-20T13:31:04.582Z,92.90
2022-12-20T13:33:39.111Z,93.04
2022-12-20T13:36:11.453Z,92.80
2022-12-20T13:38:54.641Z,92.65
2022-12-20T13:41:21.061Z,92.89
2022-12-20T13:43:48.745Z,92.72
2022-12-20T13:46:24.261Z,92.44
2022-12-20T13:48:52.793Z,92.62
2022-12-20T13:51:20.951Z,93.13
2022-12-20T13:54:13.725Z,92.80
2022-12-20T13:56:46.164Z,92.89
2022-12-20T13:59:15.349Z,93.13
2022-12-20T14:01:56.697Z,92.81
2022-12-20T14:04:25.892Z,92.88
2022-12-20T14:06:59.970Z,92.71
2022-12-20T14:09:32.696Z,92.73
2022-12-20T14:12:05.342Z,92.62
2022-12-20T14:14:36.605Z,92.74
2022-12-20T14:17:23.350Z,92.81
2022-12-20T14:20:08.590Z,92.95
2022-12-20T14:22:36.157Z,92.53
2022-12-20T14:25:05.538Z,92.72
2022-12-20T14:27:35.107Z,93.21
2022-12-20T14:30:01.695Z,92.50
2022-12-20T14:32:29.260Z,93.10
2022-12-20T14:34:55.757Z,92.91
2022-12-20T14:37:33.096Z,93.16
2022-12-20T14:40:18.437Z,92.38
2022-12-20T14:42:48.106Z,92.50
2022-12-20T14:45:14.650Z,92.30
2022-12-20T14:47:49.188Z,92.09
2022-12-20T14:50:20.359Z,92.13
2022-12-20T14:52:47.021Z,92.01
2022-12-20T14:55:22.476Z,92.18
2022-12-20T14:57:52.109Z,92.02
2022-12-20T15:00:18.533Z,92.54
2022-12-20T15:02:53.367Z,91.96
2022-12-20T15:05:35.647Z,92.27
2022-12-20T15:08:11.464Z,92.19
2022-12-20T15:10:37.982Z,92.56
2022-12-20T15:13:04.921Z,92.29
2022-12-20T15:15:31.382Z,92.01
2022-12-20T15:17:57.864Z,92.21
2022-12-20T15:20:24.280Z,92.38
2022-12-20T15:22:50.731Z,92.00
2022-12-20T15:25:17.591Z,91.99
2022-12-20T15:27:44.103Z,92.13
2022-12-20T15:30:13.939Z,91.91
2022-12-20T15:32:54.737Z,91.56
2022-12-20T15:35:22.094Z,92.18
2022-12-20T15:37:48.575Z,92.75
2022-12-20T15:40:15.165Z,92.13
2022-12-20T15:42:42.837Z,91.91
2022-12-20T15:45:16.062Z,92.33
2022-12-20T15:47:42.847Z,91.98
2022-12-20T15:50:10.426Z,92.13
2022-12-20T15:52:36.996Z,92.55
2022-12-20T15:55:03.566Z,92.23
2022-12-20T15:57:30.805Z,91.98
2022-12-20T16:00:01.097Z,91.90
2022-12-20T16:02:29.629Z,91.98
2022-12-20T16:04:56.423Z,92.27
2022-12-20T16:07:22.952Z,91.98
2022-12-20T16:09:49.415Z,91.75
2022-12-20T16:12:35.477Z,91.83
2022-12-20T16:15:02.095Z,92.00
2022-12-20T16:17:28.663Z,92.28
2022-12-20T16:19:55.594Z,92.02
2022-12-20T16:22:22.962Z,92.01
2022-12-20T16:24:49.653Z,92.26
2022-12-20T16:27:16.187Z,92.16
2022-12-20T16:29:42.653Z,92.16
2022-12-20T16:32:16.513Z,91.98
2022-12-20T16:34:43.082Z,92.37
2022-12-20T16:37:09.501Z,92.13
2022-12-20T16:39:35.935Z,92.37
2022-12-20T16:42:02.327Z,92.43
2022-12-20T16:44:28.731Z,92.05
2022-12-20T16:46:55.261Z,92.65
2022-12-20T16:49:21.863Z,92.57
2022-12-20T16:51:48.871Z,92.72
2022-12-20T16:54:22.790Z,92.60
2022-12-20T16:56:55.101Z,92.33
2022-12-20T16:59:23.348Z,92.60
2022-12-20T17:01:51.899Z,92.50
2022-12-20T17:04:18.967Z,92.13
2022-12-20T17:06:46.741Z,92.35
2022-12-20T17:11:58.609Z,92.31
2022-12-20T17:14:25.090Z,92.54
2022-12-20T17:16:51.639Z,92.35
2022-12-20T17:19:18.264Z,92.30
2022-12-20T17:24:30.772Z,92.04
2022-12-20T17:26:57.312Z,92.59
2022-12-20T17:29:23.988Z,92.19
2022-12-20T17:31:50.424Z,92.37
2022-12-20T17:34:24.202Z,92.08
2022-12-20T17:36:51.829Z,92.16
2022-12-20T17:39:18.408Z,92.14
2022-12-20T17:41:45.333Z,92.47
2022-12-20T17:44:31.995Z,92.07
2022-12-20T17:46:58.516Z,91.91
2022-12-20T17:49:24.933Z,92.13
2022-12-20T17:51:51.779Z,92.05
2022-12-20T17:54:20.465Z,91.89
2022-12-20T17:56:47.212Z,91.92
2022-12-20T17:59:14.018Z,91.85
2022-12-20T18:01:41.357Z,91.61
2022-12-20T18:04:09.179Z,91.87
2022-12-20T18:06:39.010Z,91.82
2022-12-20T18:09:08.110Z,91.86
2022-12-20T18:11:34.544Z,91.57
2022-12-20T18:14:00.904Z,91.76
2022-12-20T18:16:28.897Z,92.07
2022-12-20T18:18:55.809Z,91.46
2022-12-20T18:21:23.247Z,91.50
2022-12-20T18:23:49.882Z,91.69
2022-12-20T18:26:17.647Z,91.82
2022-12-20T18:28:45.351Z,91.43
2022-12-20T18:31:14.393Z,91.57
2022-12-20T18:33:40.848Z,91.58
2022-12-20T18:36:09.105Z,91.93
2022-12-20T18:38:36.123Z,91.50
2022-12-20T18:41:04.095Z,91.44
2022-12-20T18:43:31.285Z,91.64
2022-12-20T18:46:07.795Z,91.61
2022-12-20T18:48:34.591Z,91.78
2022-12-20T18:51:08.364Z,91.57
2022-12-20T18:53:35.933Z,91.59
2022-12-20T18:56:06.524Z,91.35
2022-12-20T18:58:32.932Z,91.85
2022-12-20T19:01:07.822Z,91.87
2022-12-20T19:03:34.292Z,91.99
2022-12-20T19:06:00.699Z,91.82
2022-12-20T19:08:28.356Z,91.48
2022-12-20T19:10:58.429Z,91.81
2022-12-20T19:13:24.883Z,91.89
2022-12-20T19:15:59.661Z,91.58
2022-12-20T19:18:26.069Z,91.65
2022-12-20T19:20:52.403Z,91.67
2022-12-20T19:23:20.677Z,91.62
2022-12-20T19:25:47.075Z,91.87
2022-12-20T19:28:13.543Z,91.70
2022-12-20T19:30:39.932Z,91.57
2022-12-20T19:33:06.613Z,91.96
2022-12-20T19:35:56.989Z,91.51
2022-12-20T19:38:19.613Z,91.75
2022-12-20T19:40:50.818Z,91.94
2022-12-20T19:43:17.122Z,91.90
2022-12-20T19:45:43.433Z,91.85
2022-12-20T19:48:10.270Z,92.04
2022-12-20T19:50:36.728Z,92.14
2022-12-20T19:53:03.080Z,92.00
2022-12-20T19:55:29.637Z,91.93
2022-12-20T19:57:56.017Z,91.71
2022-12-20T20:00:22.469Z,91.98
2022-12-20T20:02:48.892Z,91.74
2022-12-20T20:05:15.656Z,91.71
2022-12-20T20:07:42.581Z,91.99
2022-12-20T20:10:09.756Z,91.91
2022-12-20T20:12:38.215Z,91.68
2022-12-20T20:15:04.783Z,92.13
2022-12-20T20:17:31.140Z,91.66
2022-12-20T20:19:57.507Z,92.14
2022-12-20T20:22:23.805Z,91.92
2022-12-20T20:24:50.268Z,92.02
2022-12-20T20:27:16.558Z,91.75
2022-12-20T20:29:42.972Z,91.84
2022-12-20T20:32:09.435Z,91.83
2022-12-20T20:34:36.127Z,91.74
2022-12-20T20:37:02.751Z,91.72
2022-12-20T20:39:29.130Z,91.77
2022-12-20T20:41:55.482Z,91.77
2022-12-20T20:44:21.790Z,91.98
2022-12-20T20:46:48.215Z,91.90
2022-12-20T20:49:14.641Z,91.74
2022-12-20T20:51:41.539Z,92.28
2022-12-20T20:54:07.837Z,91.95
2022-12-20T20:56:35.472Z,91.79
2022-12-20T20:59:06.137Z,91.91
2022-12-20T21:01:34.622Z,91.86
2022-12-20T21:04:01.240Z,91.87
2022-12-20T21:06:40.723Z,92.14
2022-12-20T21:09:08.000Z,92.10
2022-12-20T21:11:36.302Z,92.13
2022-12-20T21:14:02.806Z,92.24
2022-12-20T21:16:29.347Z,91.93
2022-12-20T21:18:56.880Z,92.11
2022-12-20T21:21:24.518Z,92.42
2022-12-20T21:23:51.677Z,92.40
2022-12-20T21:26:18.972Z,92.43
2022-12-20T21:28:45.787Z,92.45
2022-12-20T21:31:14.334Z,91.92
2022-12-20T21:33:41.017Z,92.12
2022-12-20T21:36:08.766Z,92.06
2022-12-20T21:38:35.180Z,91.79
2022-12-20T21:41:01.599Z,92.12
2022-12-20T21:43:28.565Z,91.94
2022-12-20T21:45:56.033Z,92.07
2022-12-20T21:48:23.356Z,91.51
2022-12-20T21:51:03.148Z,91.69
2022-12-20T21:53:30.156Z,91.74
2022-12-20T21:55:57.383Z,91.61
2022-12-20T21:58:24.739Z,91.91
2022-12-20T22:00:55.145Z,91.88
2022-12-20T22:03:22.392Z,91.85
2022-12-20T22:05:49.959Z,91.78
2022-12-20T22:08:16.817Z,91.61
2022-12-20T22:10:44.050Z,91.67
2022-12-20T22:13:11.015Z,91.49
2022-12-20T22:15:40.719Z,91.31
2022-12-20T22:18:07.979Z,91.64
2022-12-20T22:20:35.198Z,91.59
2022-12-20T22:23:02.197Z,91.79
2022-12-20T22:25:28.635Z,91.79
2022-12-20T22:27:55.241Z,91.38
2022-12-20T22:30:21.821Z,91.43
2022-12-20T22:32:48.297Z,91.25
2022-12-20T22:35:22.250Z,91.37
2022-12-20T22:37:49.313Z,91.25
2022-12-20T22:40:15.641Z,90.82
2022-12-20T22:42:42.079Z,91.65
2022-12-20T22:45:08.980Z,91.37
2022-12-20T22:47:35.390Z,91.38
2022-12-20T22:50:01.780Z,91.41
2022-12-20T22:52:32.409Z,91.01
2022-12-20T22:54:59.867Z,91.04
2022-12-20T22:57:27.601Z,90.92
2022-12-20T22:59:58.482Z,91.35
2022-12-20T23:02:25.760Z,91.08
2022-12-20T23:04:52.625Z,90.96
2022-12-20T23:07:19.279Z,90.93
2022-12-20T23:09:45.814Z,91.45
2022-12-20T23:12:30.754Z,91.18
2022-12-20T23:15:26.173Z,91.17
2022-12-20T23:17:52.729Z,91.51
2022-12-20T23:20:37.872Z,90.98
2022-12-20T23:23:04.290Z,91.43
2022-12-20T23:25:30.632Z,91.16
2022-12-20T23:27:57.116Z,91.36
2022-12-20T23:30:23.770Z,90.96
2022-12-20T23:32:50.431Z,91.43
2022-12-20T23:35:17.927Z,90.83
2022-12-20T23:37:48.096Z,91.56
2022-12-20T23:40:16.172Z,91.09
2022-12-20T23:42:43.136Z,90.81
2022-12-20T23:45:10.560Z,91.42
2022-12-20T23:47:36.943Z,91.16
2022-12-20T23:50:03.659Z,91.00
2022-12-20T23:52:30.386Z,91.28
2022-12-20T23:54:56.729Z,91.29
2022-12-20T23:57:23.190Z,91.02
2022-12-20T23:59:49.583Z,91.00
